createdAt,value
2023-05-25T00:00:13.946Z,10.30
2023-05-25T00:02:40.998Z,10.30
2023-05-25T00:05:09.622Z,10.20
2023-05-25T00:07:36.558Z,10.10
2023-05-25T00:10:04.184Z,10.00
2023-05-25T00:12:31.231Z,9.90
2023-05-25T00:14:59.396Z,9.90
2023-05-25T00:17:32.109Z,9.90
2023-05-25T00:20:08.200Z,10.00
2023-05-25T00:22:38.929Z,9.90
2023-05-25T00:25:06.664Z,10.00
2023-05-25T00:27:33.591Z,10.00
2023-05-25T00:30:00.631Z,10.00
2023-05-25T00:32:27.720Z,10.00
2023-05-25T00:34:55.544Z,10.10
2023-05-25T00:37:22.650Z,10.00
2023-05-25T00:39:49.528Z,10.00
2023-05-25T00:42:16.607Z,10.00
2023-05-25T00:44:43.627Z,9.90
2023-05-25T00:47:11.970Z,9.80
2023-05-25T00:49:38.998Z,9.80
2023-05-25T00:52:06.458Z,9.80
2023-05-25T00:54:35.358Z,9.70
2023-05-25T00:57:06.793Z,9.50
2023-05-25T00:59:48.682Z,9.30
2023-05-25T01:02:17.729Z,9.30
2023-05-25T01:04:49.655Z,9.40
2023-05-25T01:07:23.507Z,9.40
2023-05-25T01:09:57.196Z,9.30
2023-05-25T01:12:27.154Z,9.20
2023-05-25T01:17:26.694Z,9.30
2023-05-25T01:20:08.876Z,9.30
2023-05-25T01:22:54.676Z,9.30
2023-05-25T01:25:47.757Z,9.30
2023-05-25T01:28:25.656Z,9.30
2023-05-25T01:30:53.532Z,9.20
2023-05-25T01:33:21.735Z,9.30
2023-05-25T01:35:49.827Z,9.50
2023-05-25T01:38:17.908Z,9.40
2023-05-25T01:40:44.995Z,9.40
2023-05-25T01:43:12.094Z,9.60
2023-05-25T01:45:39.059Z,9.50
2023-05-25T01:48:23.674Z,9.50
2023-05-25T01:51:05.079Z,9.50
2023-05-25T01:53:37.374Z,9.40
2023-05-25T01:56:08.910Z,9.30
2023-05-25T01:58:41.016Z,9.40
2023-05-25T02:01:10.175Z,9.40
2023-05-25T02:03:39.993Z,9.30
2023-05-25T02:06:08.268Z,9.40
2023-05-25T02:08:35.159Z,9.30
2023-05-25T02:11:03.732Z,9.30
2023-05-25T02:13:30.943Z,9.30
2023-05-25T02:15:57.898Z,9.30
2023-05-25T02:18:24.907Z,9.30
2023-05-25T02:20:51.918Z,9.40
2023-05-25T02:23:19.196Z,9.40
2023-05-25T02:25:46.668Z,9.40
2023-05-25T02:28:14.761Z,9.30
2023-05-25T02:30:41.654Z,9.30
2023-05-25T02:33:09.007Z,9.30
2023-05-25T02:35:36.318Z,9.20
2023-05-25T02:38:03.286Z,9.20
2023-05-25T02:40:30.167Z,9.20
2023-05-25T02:42:57.054Z,9.30
2023-05-25T02:45:23.929Z,9.30
2023-05-25T02:47:51.051Z,9.20
2023-05-25T02:50:17.970Z,9.20
2023-05-25T02:52:44.915Z,9.30
2023-05-25T02:55:13.727Z,9.20
2023-05-25T02:57:41.155Z,9.20
2023-05-25T03:00:08.557Z,9.10
2023-05-25T03:02:35.523Z,9.10
2023-05-25T03:05:04.381Z,9.00
2023-05-25T03:07:31.861Z,8.80
2023-05-25T03:09:59.706Z,8.80
2023-05-25T03:12:26.648Z,8.80
2023-05-25T03:17:19.049Z,8.90
2023-05-25T03:19:46.274Z,8.80
2023-05-25T03:22:13.145Z,9.00
2023-05-25T03:24:41.890Z,9.00
2023-05-25T03:27:09.133Z,9.10
2023-05-25T03:29:36.095Z,9.20
2023-05-25T03:32:03.164Z,9.10
2023-05-25T03:34:30.293Z,9.10
2023-05-25T03:36:57.223Z,9.00
2023-05-25T03:39:24.140Z,8.90
2023-05-25T03:41:51.447Z,8.90
2023-05-25T03:44:18.402Z,9.00
2023-05-25T03:46:45.457Z,9.00
2023-05-25T03:49:14.302Z,9.00
2023-05-25T03:51:41.941Z,8.90
2023-05-25T03:54:08.906Z,9.00
2023-05-25T03:56:36.026Z,8.90
2023-05-25T03:59:03.122Z,9.00
2023-05-25T04:01:30.315Z,9.10
2023-05-25T04:03:57.503Z,9.10
2023-05-25T04:06:25.777Z,9.20
2023-05-25T04:08:53.029Z,9.20
2023-05-25T04:11:21.188Z,9.20
2023-05-25T04:13:48.224Z,9.60
2023-05-25T04:16:15.316Z,9.70
2023-05-25T04:18:42.334Z,10.00
2023-05-25T04:21:09.239Z,10.10
2023-05-25T04:23:36.184Z,10.10
2023-05-25T04:26:03.995Z,10.20
2023-05-25T04:28:31.295Z,10.10
2023-05-25T04:30:58.322Z,10.10
2023-05-25T04:33:30.030Z,10.10
2023-05-25T04:36:00.001Z,10.10
2023-05-25T04:38:26.971Z,10.30
2023-05-25T04:40:57.806Z,10.50
2023-05-25T04:43:26.132Z,10.50
2023-05-25T04:45:54.518Z,10.70
2023-05-25T04:48:21.773Z,10.80
2023-05-25T04:50:48.762Z,11.00
2023-05-25T04:53:15.712Z,11.00
2023-05-25T04:55:42.838Z,11.20
2023-05-25T04:58:09.971Z,11.60
2023-05-25T05:00:36.869Z,12.00
2023-05-25T05:03:03.947Z,12.60
2023-05-25T05:05:30.921Z,13.40
2023-05-25T05:07:58.099Z,14.00
2023-05-25T05:10:24.977Z,14.50
2023-05-25T05:12:51.898Z,14.80
2023-05-25T05:15:19.077Z,15.60
2023-05-25T05:17:46.741Z,15.90
2023-05-25T05:20:13.945Z,16.30
2023-05-25T05:22:44.040Z,16.90
2023-05-25T05:25:11.089Z,17.40
2023-05-25T05:27:37.991Z,16.90
2023-05-25T05:30:05.397Z,16.50
2023-05-25T05:32:32.314Z,17.20
2023-05-25T05:34:59.281Z,17.10
2023-05-25T05:37:26.134Z,17.40
2023-05-25T05:39:53.537Z,17.70
2023-05-25T05:42:20.810Z,17.70
2023-05-25T05:44:47.702Z,17.60
2023-05-25T05:47:14.719Z,18.40
2023-05-25T05:49:41.882Z,19.10
2023-05-25T05:52:10.524Z,19.40
2023-05-25T05:54:37.403Z,19.50
2023-05-25T05:57:04.458Z,19.40
2023-05-25T05:59:31.377Z,19.60
2023-05-25T06:01:58.299Z,19.70
2023-05-25T06:04:29.062Z,19.80
2023-05-25T06:06:56.225Z,19.60
2023-05-25T06:09:23.214Z,19.20
2023-05-25T06:11:50.153Z,19.30
2023-05-25T06:14:17.055Z,19.00
2023-05-25T06:16:44.244Z,18.80
2023-05-25T06:19:11.615Z,18.60
2023-05-25T06:21:38.523Z,18.30
2023-05-25T06:24:05.933Z,18.20
2023-05-25T06:26:32.978Z,18.00
2023-05-25T06:29:00.284Z,18.40
2023-05-25T06:31:27.354Z,18.30
2023-05-25T06:33:54.294Z,18.40
2023-05-25T06:36:22.052Z,17.90
2023-05-25T06:38:49.028Z,18.20
2023-05-25T06:41:15.920Z,18.80
2023-05-25T06:43:42.839Z,19.40
2023-05-25T06:46:10.646Z,20.10
2023-05-25T06:48:39.643Z,20.20
2023-05-25T06:51:06.731Z,19.90
2023-05-25T06:53:33.778Z,19.40
2023-05-25T06:56:00.985Z,19.10
2023-05-25T06:58:27.923Z,19.30
2023-05-25T07:00:54.813Z,19.80
2023-05-25T07:03:22.108Z,19.90
2023-05-25T07:05:49.548Z,20.20
2023-05-25T07:08:16.558Z,20.30
2023-05-25T07:10:43.428Z,20.40
2023-05-25T07:13:11.492Z,20.50
2023-05-25T07:15:38.390Z,21.40
2023-05-25T07:18:05.453Z,21.30
2023-05-25T07:20:34.504Z,21.30
2023-05-25T07:23:01.507Z,22.00
2023-05-25T07:25:28.526Z,21.50
2023-05-25T07:27:55.721Z,20.80
2023-05-25T07:30:22.761Z,20.60
2023-05-25T07:32:49.722Z,20.60
2023-05-25T07:35:16.606Z,20.20
2023-05-25T07:37:43.484Z,21.00
2023-05-25T07:40:11.047Z,21.20
2023-05-25T07:42:38.002Z,20.60
2023-05-25T07:45:05.261Z,20.70
2023-05-25T07:47:32.320Z,20.70
2023-05-25T07:49:59.337Z,21.10
2023-05-25T07:52:26.360Z,21.30
2023-05-25T07:54:53.292Z,21.60
2023-05-25T07:57:20.230Z,22.30
2023-05-25T07:59:47.252Z,21.80
2023-05-25T08:02:14.215Z,21.10
2023-05-25T08:04:41.412Z,20.50
2023-05-25T08:07:08.600Z,20.90
2023-05-25T08:09:35.505Z,21.20
2023-05-25T08:12:24.169Z,21.60
2023-05-25T08:17:21.851Z,21.90
2023-05-25T08:19:48.895Z,20.50
2023-05-25T08:22:15.926Z,20.70
2023-05-25T08:24:42.855Z,20.20
2023-05-25T08:27:09.768Z,20.40
2023-05-25T08:29:36.651Z,21.00
2023-05-25T08:32:03.804Z,21.50
2023-05-25T08:34:30.740Z,20.90
2023-05-25T08:36:58.200Z,20.50
2023-05-25T08:39:25.140Z,21.10
2023-05-25T08:41:52.833Z,21.60
2023-05-25T08:44:21.222Z,22.40
2023-05-25T08:46:51.890Z,22.20
2023-05-25T08:49:18.971Z,21.60
2023-05-25T08:51:51.327Z,20.60
2023-05-25T08:54:22.753Z,19.70
2023-05-25T08:56:55.285Z,19.10
2023-05-25T08:59:34.742Z,19.40
2023-05-25T09:02:10.477Z,19.40
2023-05-25T09:04:38.434Z,19.90
2023-05-25T09:07:10.754Z,20.00
2023-05-25T09:09:39.106Z,20.30
2023-05-25T09:12:06.800Z,20.90
2023-05-25T09:14:35.262Z,21.20
2023-05-25T09:17:02.286Z,21.90
2023-05-25T09:19:29.187Z,21.20
2023-05-25T09:22:03.131Z,20.40
2023-05-25T09:24:41.745Z,20.10
2023-05-25T09:27:12.412Z,19.90
2023-05-25T09:29:39.394Z,19.40
2023-05-25T09:32:07.052Z,19.00
2023-05-25T09:34:34.251Z,19.50
2023-05-25T09:37:04.888Z,19.50
2023-05-25T09:39:32.025Z,20.00
2023-05-25T09:41:59.394Z,19.70
2023-05-25T09:44:27.449Z,20.20
2023-05-25T09:46:54.464Z,19.60
2023-05-25T09:49:21.738Z,18.50
2023-05-25T09:51:49.468Z,18.10
2023-05-25T09:54:16.741Z,18.10
2023-05-25T09:56:44.378Z,17.90
2023-05-25T09:59:12.638Z,17.70
2023-05-25T10:01:41.757Z,17.60
2023-05-25T10:04:08.912Z,17.50
2023-05-25T10:09:20.396Z,17.70
2023-05-25T10:11:50.070Z,17.90
2023-05-25T10:14:22.664Z,18.10
2023-05-25T10:16:52.951Z,18.40
2023-05-25T10:19:43.341Z,17.90
2023-05-25T10:22:23.978Z,17.40
2023-05-25T10:24:57.325Z,17.70
2023-05-25T10:27:28.241Z,17.60
2023-05-25T10:29:57.777Z,17.70
2023-05-25T10:32:26.321Z,17.90
2023-05-25T10:34:53.666Z,17.60
2023-05-25T10:37:20.931Z,17.30
2023-05-25T10:39:49.988Z,17.00
2023-05-25T10:42:18.958Z,17.20
2023-05-25T10:44:46.697Z,17.20
2023-05-25T10:47:15.235Z,17.00
2023-05-25T10:50:18.798Z,16.80
2023-05-25T10:52:45.773Z,17.10
2023-05-25T10:55:12.707Z,17.30
2023-05-25T10:57:39.590Z,17.10
2023-05-25T11:00:08.813Z,17.30
2023-05-25T11:02:50.570Z,17.50
2023-05-25T11:05:26.825Z,17.30
2023-05-25T11:07:55.763Z,17.60
2023-05-25T11:10:44.554Z,17.40
2023-05-25T11:13:31.728Z,17.70
2023-05-25T11:16:15.302Z,17.40
2023-05-25T11:18:43.858Z,17.60
2023-05-25T11:21:30.334Z,17.90
2023-05-25T11:24:03.085Z,18.30
2023-05-25T11:26:34.620Z,18.30
2023-05-25T11:29:13.240Z,18.10
2023-05-25T11:31:43.739Z,17.80
2023-05-25T11:34:12.449Z,17.70
2023-05-25T11:36:39.802Z,17.70
2023-05-25T11:39:14.290Z,18.00
2023-05-25T11:41:56.061Z,18.20
2023-05-25T11:44:31.379Z,17.90
2023-05-25T11:47:01.920Z,17.50
2023-05-25T11:49:29.256Z,17.30
2023-05-25T11:51:57.616Z,17.30
2023-05-25T11:54:27.167Z,17.50
2023-05-25T11:56:57.550Z,17.50
2023-05-25T11:59:27.209Z,17.60
2023-05-25T12:01:59.292Z,17.70
2023-05-25T12:04:26.408Z,17.60
2023-05-25T12:06:53.749Z,17.50
2023-05-25T12:09:22.286Z,17.70
2023-05-25T12:11:49.670Z,17.50
2023-05-25T12:14:16.852Z,17.50
2023-05-25T12:16:44.288Z,17.70
2023-05-25T12:19:12.169Z,17.90
2023-05-25T12:21:41.069Z,18.00
2023-05-25T12:24:09.463Z,17.80
2023-05-25T12:26:50.817Z,17.70
2023-05-25T12:29:17.789Z,17.80
2023-05-25T12:31:45.087Z,17.90
2023-05-25T12:34:19.619Z,18.00
2023-05-25T12:36:51.847Z,17.90
2023-05-25T12:39:30.644Z,17.90
2023-05-25T12:41:59.576Z,17.70
2023-05-25T12:44:33.094Z,17.90
2023-05-25T12:47:23.434Z,18.20
2023-05-25T12:50:09.751Z,18.40
2023-05-25T12:52:37.622Z,18.50
2023-05-25T12:55:20.726Z,18.20
2023-05-25T12:57:52.709Z,18.10
2023-05-25T13:00:24.526Z,18.40
2023-05-25T13:02:52.383Z,18.50
2023-05-25T13:05:27.361Z,18.40
2023-05-25T13:07:56.767Z,18.10
2023-05-25T13:10:24.455Z,18.00
2023-05-25T13:12:54.008Z,17.80
2023-05-25T13:15:22.125Z,17.90
2023-05-25T13:17:50.944Z,18.10
2023-05-25T13:20:19.743Z,18.00
2023-05-25T13:22:48.726Z,17.90
2023-05-25T13:25:16.279Z,17.90
2023-05-25T13:27:47.945Z,18.00
2023-05-25T13:30:15.710Z,18.10
2023-05-25T13:32:43.793Z,18.30
2023-05-25T13:35:19.464Z,18.30
2023-05-25T13:37:46.636Z,18.40
2023-05-25T13:40:14.063Z,18.10
2023-05-25T13:42:41.249Z,17.80
2023-05-25T13:45:08.822Z,17.90
2023-05-25T13:47:35.857Z,18.10
2023-05-25T13:50:02.844Z,18.60
2023-05-25T13:52:29.926Z,18.80
2023-05-25T13:54:56.799Z,18.80
2023-05-25T13:57:23.717Z,18.70
2023-05-25T13:59:50.600Z,18.60
2023-05-25T14:02:17.698Z,18.80
2023-05-25T14:04:44.719Z,18.90
2023-05-25T14:07:12.564Z,18.60
2023-05-25T14:09:39.423Z,18.30
2023-05-25T14:12:07.029Z,18.30
2023-05-25T14:14:33.959Z,18.60
2023-05-25T14:17:01.579Z,18.90
2023-05-25T14:19:28.939Z,19.10
2023-05-25T14:22:11.837Z,19.30
2023-05-25T14:24:40.692Z,19.40
2023-05-25T14:27:07.670Z,19.00
2023-05-25T14:29:34.871Z,18.80
2023-05-25T14:32:02.012Z,18.50
2023-05-25T14:34:29.700Z,18.30
2023-05-25T14:36:56.768Z,18.30
2023-05-25T14:39:23.697Z,18.40
2023-05-25T14:41:50.817Z,18.10
2023-05-25T14:44:17.700Z,17.90
2023-05-25T14:46:44.723Z,17.90
2023-05-25T14:49:11.692Z,17.90
2023-05-25T14:51:38.652Z,17.80
2023-05-25T14:54:07.458Z,17.90
2023-05-25T14:56:34.929Z,17.80
2023-05-25T14:59:01.931Z,17.90
2023-05-25T15:01:29.689Z,18.40
2023-05-25T15:03:57.130Z,18.60
2023-05-25T15:06:24.185Z,18.90
2023-05-25T15:08:51.488Z,18.80
2023-05-25T15:11:18.871Z,18.60
2023-05-25T15:13:46.134Z,18.40
2023-05-25T15:16:17.154Z,18.40
2023-05-25T15:18:44.938Z,18.50
2023-05-25T15:21:12.022Z,18.60
2023-05-25T15:23:38.926Z,18.70
2023-05-25T15:26:07.870Z,18.40
2023-05-25T15:28:35.109Z,18.20
2023-05-25T15:31:03.387Z,18.10
2023-05-25T15:33:44.184Z,18.00
2023-05-25T15:36:15.214Z,18.00
2023-05-25T15:38:49.260Z,17.90
2023-05-25T15:41:17.654Z,18.10
2023-05-25T15:43:54.588Z,18.30
2023-05-25T15:49:02.227Z,18.60
2023-05-25T15:51:29.177Z,18.70
2023-05-25T15:53:56.088Z,19.00
2023-05-25T15:56:23.286Z,18.80
2023-05-25T15:58:50.138Z,18.60
2023-05-25T16:01:17.133Z,18.50
2023-05-25T16:03:45.035Z,18.30
2023-05-25T16:06:12.075Z,18.20
2023-05-25T16:08:38.945Z,18.20
2023-05-25T16:11:06.393Z,18.20
2023-05-25T16:13:33.373Z,18.40
2023-05-25T16:16:00.308Z,18.60
2023-05-25T16:18:27.339Z,18.60
2023-05-25T16:20:58.013Z,18.50
2023-05-25T16:23:25.488Z,18.40
2023-05-25T16:25:52.604Z,18.30
2023-05-25T16:28:19.811Z,18.20
2023-05-25T16:30:46.699Z,18.20
2023-05-25T16:33:13.706Z,18.20
2023-05-25T16:35:40.655Z,18.30
2023-05-25T16:38:07.488Z,18.30
2023-05-25T16:40:34.549Z,18.30
2023-05-25T16:43:01.388Z,18.30
2023-05-25T16:45:28.444Z,18.50
2023-05-25T16:47:55.306Z,18.30
2023-05-25T16:50:22.248Z,18.10
2023-05-25T16:52:49.135Z,18.10
2023-05-25T16:55:16.486Z,18.10
2023-05-25T16:57:43.512Z,18.00
2023-05-25T17:00:11.037Z,17.90
2023-05-25T17:02:37.957Z,17.90
2023-05-25T17:05:08.614Z,18.00
2023-05-25T17:07:36.012Z,18.00
2023-05-25T17:10:03.025Z,18.10
2023-05-25T17:12:29.966Z,18.10
2023-05-25T17:14:57.392Z,18.20
2023-05-25T17:17:27.840Z,18.30
2023-05-25T17:19:55.084Z,18.20
2023-05-25T17:22:22.584Z,18.10
2023-05-25T17:24:49.434Z,17.90
2023-05-25T17:27:16.513Z,17.80
2023-05-25T17:29:43.399Z,17.70
2023-05-25T17:32:10.381Z,17.70
2023-05-25T17:34:37.385Z,17.60
2023-05-25T17:37:04.413Z,17.70
2023-05-25T17:39:31.362Z,17.70
2023-05-25T17:41:58.300Z,17.80
2023-05-25T17:44:26.217Z,17.80
2023-05-25T17:46:53.105Z,17.80
2023-05-25T17:49:19.955Z,17.70
2023-05-25T17:51:46.815Z,17.50
2023-05-25T17:54:18.411Z,17.60
2023-05-25T17:56:46.064Z,17.60
2023-05-25T17:59:13.028Z,17.40
2023-05-25T18:01:40.902Z,17.40
2023-05-25T18:04:08.057Z,17.50
2023-05-25T18:06:35.270Z,17.50
2023-05-25T18:09:02.217Z,17.50
2023-05-25T18:11:30.261Z,17.30
2023-05-25T18:13:57.197Z,17.40
2023-05-25T18:16:24.133Z,17.30
2023-05-25T18:18:53.833Z,17.40
2023-05-25T18:21:21.001Z,17.30
2023-05-25T18:23:48.487Z,17.30
2023-05-25T18:26:15.377Z,17.20
2023-05-25T18:28:42.291Z,17.10
2023-05-25T18:31:09.263Z,17.10
2023-05-25T18:33:36.169Z,17.10
2023-05-25T18:36:03.077Z,17.00
2023-05-25T18:38:29.945Z,16.90
2023-05-25T18:40:56.886Z,16.90
2023-05-25T18:43:24.529Z,16.80
2023-05-25T18:45:51.465Z,16.80
2023-05-25T18:48:19.206Z,16.70
2023-05-25T18:50:46.196Z,16.70
2023-05-25T18:53:13.185Z,16.80
2023-05-25T18:55:40.188Z,16.70
2023-05-25T18:58:07.333Z,16.60
2023-05-25T19:00:34.417Z,16.60
2023-05-25T19:03:01.587Z,16.50
2023-05-25T19:05:28.609Z,16.50
2023-05-25T19:07:59.617Z,16.40
2023-05-25T19:10:26.990Z,16.30
2023-05-25T19:12:53.866Z,16.20
2023-05-25T19:15:20.898Z,16.20
2023-05-25T19:17:47.938Z,16.20
2023-05-25T19:20:15.161Z,16.20
2023-05-25T19:22:42.686Z,16.10
2023-05-25T19:25:09.688Z,16.10
2023-05-25T19:27:36.648Z,15.90
2023-05-25T19:30:04.143Z,15.90
2023-05-25T19:32:31.327Z,15.80
2023-05-25T19:34:58.303Z,15.80
2023-05-25T19:37:25.756Z,15.70
2023-05-25T19:39:52.648Z,15.60
2023-05-25T19:42:19.549Z,15.60
2023-05-25T19:44:46.619Z,15.60
2023-05-25T19:47:13.487Z,15.60
2023-05-25T19:49:40.438Z,15.50
2023-05-25T19:52:07.456Z,15.50
2023-05-25T19:54:34.386Z,15.40
2023-05-25T19:57:01.764Z,15.40
2023-05-25T19:59:30.407Z,15.30
2023-05-25T20:01:57.441Z,15.40
2023-05-25T20:04:24.448Z,15.20
2023-05-25T20:06:52.258Z,15.10
2023-05-25T20:09:19.315Z,15.00
2023-05-25T20:11:46.194Z,14.90
2023-05-25T20:14:13.129Z,15.00
2023-05-25T20:16:40.142Z,15.00
2023-05-25T20:19:07.905Z,14.90
2023-05-25T20:21:35.867Z,14.90
2023-05-25T20:24:02.919Z,14.80
2023-05-25T20:26:29.910Z,14.70
2023-05-25T20:28:57.436Z,14.70
2023-05-25T20:31:27.207Z,14.60
2023-05-25T20:33:54.128Z,14.60
2023-05-25T20:36:21.159Z,14.60
2023-05-25T20:38:48.156Z,14.50
2023-05-25T20:41:15.048Z,14.40
2023-05-25T20:43:41.992Z,14.30
2023-05-25T20:46:09.480Z,14.40
2023-05-25T20:48:37.210Z,14.40
2023-05-25T20:51:04.103Z,14.30
2023-05-25T20:53:31.331Z,14.30
2023-05-25T20:55:58.892Z,14.20
2023-05-25T20:58:25.745Z,14.20
2023-05-25T21:00:52.643Z,14.20
2023-05-25T21:03:19.588Z,14.10
2023-05-25T21:05:46.845Z,14.00
2023-05-25T21:08:14.039Z,14.00
2023-05-25T21:10:41.476Z,13.90
2023-05-25T21:13:08.397Z,13.90
2023-05-25T21:15:35.390Z,13.90
2023-05-25T21:18:03.690Z,13.90
2023-05-25T21:20:30.788Z,13.70
2023-05-25T21:22:57.724Z,13.70
2023-05-25T21:25:24.596Z,13.60
2023-05-25T21:27:51.461Z,13.50
2023-05-25T21:30:19.533Z,13.60
2023-05-25T21:32:47.272Z,13.50
2023-05-25T21:35:16.199Z,13.50
2023-05-25T21:37:43.084Z,13.40
2023-05-25T21:40:10.518Z,13.30
2023-05-25T21:42:37.390Z,13.30
2023-05-25T21:45:04.710Z,13.30
2023-05-25T21:47:31.596Z,13.30
2023-05-25T21:49:58.536Z,13.20
2023-05-25T21:52:25.491Z,13.10
2023-05-25T21:54:52.432Z,13.00
2023-05-25T21:57:19.344Z,13.00
2023-05-25T21:59:46.420Z,13.10
2023-05-25T22:02:13.349Z,13.00
2023-05-25T22:04:40.295Z,13.10
2023-05-25T22:07:07.183Z,12.90
2023-05-25T22:09:34.068Z,12.90
2023-05-25T22:12:02.348Z,12.80
2023-05-25T22:14:29.295Z,12.70
2023-05-25T22:16:56.383Z,12.60
2023-05-25T22:19:23.444Z,12.60
2023-05-25T22:21:50.301Z,12.60
2023-05-25T22:24:17.159Z,12.60
2023-05-25T22:26:44.077Z,12.50
2023-05-25T22:29:12.116Z,12.40
2023-05-25T22:31:39.082Z,12.40
2023-05-25T22:34:06.029Z,12.30
2023-05-25T22:36:32.988Z,12.30
2023-05-25T22:39:00.021Z,12.30
2023-05-25T22:41:26.901Z,12.20
2023-05-25T22:43:53.857Z,12.20
2023-05-25T22:46:21.079Z,12.30
2023-05-25T22:48:48.040Z,12.00
2023-05-25T22:51:15.073Z,12.00
2023-05-25T22:53:42.041Z,11.90
2023-05-25T22:56:08.960Z,12.00
2023-05-25T22:58:35.830Z,11.90
2023-05-25T23:01:02.769Z,11.90
2023-05-25T23:03:30.413Z,11.80
2023-05-25T23:05:57.448Z,11.90
2023-05-25T23:08:24.304Z,11.70
2023-05-25T23:10:51.148Z,11.70
2023-05-25T23:13:19.359Z,11.60
2023-05-25T23:15:47.725Z,11.60
2023-05-25T23:18:14.874Z,11.60
2023-05-25T23:20:42.002Z,11.50
2023-05-25T23:23:09.005Z,11.60
2023-05-25T23:25:36.650Z,11.50
2023-05-25T23:28:03.575Z,11.40
2023-05-25T23:30:30.534Z,11.40
2023-05-25T23:32:57.534Z,11.40
2023-05-25T23:35:24.431Z,11.30
2023-05-25T23:37:52.216Z,11.20
2023-05-25T23:40:19.253Z,11.20
2023-05-25T23:42:46.422Z,11.40
2023-05-25T23:45:13.919Z,11.20
2023-05-25T23:47:41.042Z,11.10
2023-05-25T23:50:08.252Z,10.90
2023-05-25T23:52:35.298Z,11.00
2023-05-25T23:55:02.559Z,11.00
2023-05-25T23:57:29.569Z,11.10
2023-05-25T23:59:56.733Z,11.10
